QLK1533 YCFS-YBCG
Flight info
| Callsign | QLK1533 |
|---|---|
| Flight time | 0h 33m |
| Altitude | 16000 |
| Route | TUCAB |
| Aircraft | A319/M-SDE3FGHIRWY/LB1 |
Departure
| Time | 2026-05-06 10:23 |
|---|---|
| Airport | Coffs Harbour Airport (YCFS) |
Arrival
| Time | 2026-05-06 10:56 |
|---|---|
| Airport | Gold Coast Airport (YBCG) |
| Time | Latitude | Longitude | Altitude | Speed | Heading |
|---|---|---|---|---|---|
| 2026-05-06 10:05 | -30.32350 | 153.11590 | 30 ft | 0 kts | 341° |
| 2026-05-06 10:16 | -30.32356 | 153.11592 | 26 ft | 3 kts | 316° |
| 2026-05-06 10:16 | -30.32371 | 153.11603 | 28 ft | 3 kts | 335° |
| 2026-05-06 10:17 | -30.32392 | 153.11612 | 25 ft | 3 kts | 1° |
| 2026-05-06 10:17 | -30.32408 | 153.11606 | 25 ft | 1 kts | 40° |
| 2026-05-06 10:17 | -30.32409 | 153.11606 | 25 ft | 0 kts | 40° |
| 2026-05-06 10:19 | -30.32407 | 153.11608 | 25 ft | 4 kts | 40° |
| 2026-05-06 10:19 | -30.32368 | 153.11690 | 25 ft | 15 kts | 117° |
| 2026-05-06 10:19 | -30.32458 | 153.11771 | 27 ft | 19 kts | 185° |
| 2026-05-06 10:20 | -30.32574 | 153.11664 | 27 ft | 25 kts | 220° |
| 2026-05-06 10:20 | -30.32727 | 153.11513 | 25 ft | 32 kts | 220° |
| 2026-05-06 10:20 | -30.32916 | 153.11326 | 22 ft | 39 kts | 220° |
| 2026-05-06 10:20 | -30.33130 | 153.11113 | 25 ft | 34 kts | 221° |
| 2026-05-06 10:21 | -30.33265 | 153.11093 | 23 ft | 14 kts | 130° |
| 2026-05-06 10:21 | -30.33344 | 153.11137 | 23 ft | 16 kts | 201° |
| 2026-05-06 10:21 | -30.33469 | 153.11021 | 19 ft | 29 kts | 220° |
| 2026-05-06 10:21 | -30.33639 | 153.10851 | 17 ft | 36 kts | 220° |
| 2026-05-06 10:22 | -30.33811 | 153.10705 | 18 ft | 19 kts | 201° |
| 2026-05-06 10:22 | -30.33805 | 153.10682 | 18 ft | 5 kts | 69° |
| 2026-05-06 10:22 | -30.33759 | 153.10734 | 16 ft | 0 kts | 38° |
| 2026-05-06 10:23 | -30.33549 | 153.10942 | 20 ft | 80 kts | 40° |
| 2026-05-06 10:23 | -30.32946 | 153.11537 | 23 ft | 146 kts | 40° |
| 2026-05-06 10:23 | -30.32159 | 153.12331 | 680 ft | 144 kts | 41° |
| 2026-05-06 10:23 | -30.31356 | 153.13164 | 1022 ft | 169 kts | 40° |
| 2026-05-06 10:24 | -30.30445 | 153.14136 | 1363 ft | 192 kts | 41° |
| 2026-05-06 10:24 | -30.29411 | 153.15261 | 1811 ft | 216 kts | 41° |
| 2026-05-06 10:24 | -30.28244 | 153.16515 | 2352 ft | 241 kts | 41° |
| 2026-05-06 10:24 | -30.26974 | 153.17866 | 3168 ft | 253 kts | 40° |
| 2026-05-06 10:25 | -30.25664 | 153.19261 | 4137 ft | 260 kts | 38° |
| 2026-05-06 10:25 | -30.24080 | 153.20273 | 4999 ft | 265 kts | 13° |
| 2026-05-06 10:25 | -30.22241 | 153.20540 | 5878 ft | 269 kts | 1° |
| 2026-05-06 10:25 | -30.20357 | 153.20698 | 6804 ft | 274 kts | 1° |
| 2026-05-06 10:26 | -30.18437 | 153.20861 | 7699 ft | 279 kts | 1° |
| 2026-05-06 10:26 | -30.16492 | 153.21025 | 8631 ft | 282 kts | 1° |
| 2026-05-06 10:26 | -30.14512 | 153.21193 | 9551 ft | 286 kts | 1° |
| 2026-05-06 10:26 | -30.12502 | 153.21365 | 10291 ft | 297 kts | 1° |
| 2026-05-06 10:27 | -30.10358 | 153.21543 | 10591 ft | 320 kts | 1° |
| 2026-05-06 10:27 | -30.08090 | 153.21732 | 11143 ft | 331 kts | 1° |
| 2026-05-06 10:27 | -30.05776 | 153.21930 | 11904 ft | 335 kts | 1° |
| 2026-05-06 10:27 | -30.03443 | 153.22134 | 12707 ft | 338 kts | 1° |
| 2026-05-06 10:28 | -30.01089 | 153.22339 | 13508 ft | 340 kts | 1° |
| 2026-05-06 10:28 | -29.98720 | 153.22541 | 14220 ft | 343 kts | 1° |
| 2026-05-06 10:28 | -29.97137 | 153.22676 | 14656 ft | 346 kts | 0° |
| 2026-05-06 10:28 | -29.94726 | 153.22883 | 15317 ft | 349 kts | 0° |
| 2026-05-06 10:29 | -29.92288 | 153.23091 | 15885 ft | 353 kts | 0° |
| 2026-05-06 10:29 | -29.89835 | 153.23298 | 16070 ft | 354 kts | 0° |
| 2026-05-06 10:29 | -29.86578 | 153.23575 | 16118 ft | 354 kts | 0° |
| 2026-05-06 10:29 | -29.84918 | 153.23716 | 16119 ft | 354 kts | 0° |
| 2026-05-06 10:30 | -29.82487 | 153.23924 | 16123 ft | 354 kts | 0° |
| 2026-05-06 10:30 | -29.80026 | 153.24132 | 16125 ft | 354 kts | 0° |
| 2026-05-06 10:30 | -29.77568 | 153.24337 | 16125 ft | 354 kts | 0° |
| 2026-05-06 10:30 | -29.75107 | 153.24543 | 16125 ft | 354 kts | 0° |
| 2026-05-06 10:31 | -29.72650 | 153.24753 | 16124 ft | 354 kts | 360° |
| 2026-05-06 10:31 | -29.70194 | 153.24963 | 16122 ft | 354 kts | 360° |
| 2026-05-06 10:31 | -29.67737 | 153.25168 | 16122 ft | 354 kts | 360° |
| 2026-05-06 10:31 | -29.65279 | 153.25372 | 16123 ft | 354 kts | 360° |
| 2026-05-06 10:32 | -29.62821 | 153.25581 | 16124 ft | 354 kts | 0° |
| 2026-05-06 10:32 | -29.60363 | 153.25790 | 16124 ft | 354 kts | 360° |
| 2026-05-06 10:32 | -29.57905 | 153.25999 | 16123 ft | 354 kts | 360° |
| 2026-05-06 10:32 | -29.55445 | 153.26205 | 16124 ft | 354 kts | 360° |
| 2026-05-06 10:33 | -29.52987 | 153.26412 | 16124 ft | 354 kts | 360° |
| 2026-05-06 10:33 | -29.50527 | 153.26619 | 16124 ft | 354 kts | 360° |
| 2026-05-06 10:33 | -29.48066 | 153.26826 | 16111 ft | 354 kts | 0° |
| 2026-05-06 10:33 | -29.45616 | 153.27137 | 16114 ft | 355 kts | 3° |
| 2026-05-06 10:34 | -29.43165 | 153.27561 | 16121 ft | 356 kts | 5° |
| 2026-05-06 10:34 | -29.40750 | 153.28035 | 16123 ft | 356 kts | 5° |
| 2026-05-06 10:34 | -29.38305 | 153.28528 | 16124 ft | 356 kts | 5° |
| 2026-05-06 10:34 | -29.35862 | 153.29014 | 16125 ft | 356 kts | 5° |
| 2026-05-06 10:35 | -29.33420 | 153.29482 | 16125 ft | 356 kts | 5° |
| 2026-05-06 10:35 | -29.30979 | 153.29937 | 16125 ft | 356 kts | 5° |
| 2026-05-06 10:35 | -29.28534 | 153.30384 | 16125 ft | 355 kts | 4° |
| 2026-05-06 10:35 | -29.26089 | 153.30824 | 16125 ft | 355 kts | 4° |
| 2026-05-06 10:36 | -29.23645 | 153.31260 | 16118 ft | 355 kts | 5° |
| 2026-05-06 10:36 | -29.21206 | 153.31695 | 16122 ft | 355 kts | 5° |
| 2026-05-06 10:36 | -29.18764 | 153.32135 | 16124 ft | 355 kts | 5° |
| 2026-05-06 10:36 | -29.16324 | 153.32578 | 16125 ft | 355 kts | 5° |
| 2026-05-06 10:37 | -29.13881 | 153.33020 | 16126 ft | 355 kts | 5° |
| 2026-05-06 10:37 | -29.11443 | 153.33460 | 16126 ft | 355 kts | 5° |
| 2026-05-06 10:37 | -29.09005 | 153.33900 | 16126 ft | 355 kts | 5° |
| 2026-05-06 10:37 | -29.06568 | 153.34340 | 16126 ft | 355 kts | 5° |
| 2026-05-06 10:38 | -29.04130 | 153.34783 | 16131 ft | 355 kts | 5° |
| 2026-05-06 10:38 | -29.01693 | 153.35224 | 16132 ft | 355 kts | 5° |
| 2026-05-06 10:38 | -28.99256 | 153.35663 | 16122 ft | 355 kts | 5° |
| 2026-05-06 10:38 | -28.96816 | 153.36103 | 16126 ft | 354 kts | 5° |
| 2026-05-06 10:39 | -28.94383 | 153.36542 | 16126 ft | 354 kts | 5° |
| 2026-05-06 10:39 | -28.91948 | 153.36980 | 16128 ft | 354 kts | 5° |
| 2026-05-06 10:39 | -28.89515 | 153.37418 | 16132 ft | 354 kts | 5° |
| 2026-05-06 10:39 | -28.87080 | 153.37858 | 16144 ft | 354 kts | 5° |
| 2026-05-06 10:40 | -28.84647 | 153.38295 | 16137 ft | 354 kts | 5° |
| 2026-05-06 10:40 | -28.82215 | 153.38732 | 16129 ft | 354 kts | 5° |
| 2026-05-06 10:40 | -28.79818 | 153.39165 | 16128 ft | 354 kts | 5° |
| 2026-05-06 10:40 | -28.77387 | 153.39605 | 16132 ft | 354 kts | 5° |
| 2026-05-06 10:41 | -28.74955 | 153.40044 | 16137 ft | 354 kts | 5° |
| 2026-05-06 10:41 | -28.72526 | 153.40477 | 16124 ft | 354 kts | 5° |
| 2026-05-06 10:41 | -28.70094 | 153.40909 | 16131 ft | 354 kts | 5° |
| 2026-05-06 10:41 | -28.67664 | 153.41342 | 16132 ft | 354 kts | 5° |
| 2026-05-06 10:42 | -28.65232 | 153.41776 | 16130 ft | 353 kts | 5° |
| 2026-05-06 10:42 | -28.62805 | 153.42209 | 16138 ft | 353 kts | 5° |
| 2026-05-06 10:42 | -28.60379 | 153.42645 | 16132 ft | 353 kts | 5° |
| 2026-05-06 10:42 | -28.57950 | 153.43082 | 16130 ft | 353 kts | 5° |
| 2026-05-06 10:43 | -28.55560 | 153.43742 | 16130 ft | 358 kts | 19° |
| 2026-05-06 10:43 | -28.53465 | 153.45307 | 16126 ft | 367 kts | 40° |
| 2026-05-06 10:43 | -28.51856 | 153.47592 | 16133 ft | 372 kts | 51° |
| 2026-05-06 10:44 | -28.48896 | 153.52428 | 16115 ft | 373 kts | 51° |
| 2026-05-06 10:44 | -28.47415 | 153.54848 | 16121 ft | 373 kts | 51° |
| 2026-05-06 10:44 | -28.45934 | 153.57270 | 16122 ft | 373 kts | 51° |
| 2026-05-06 10:44 | -28.44452 | 153.59697 | 16124 ft | 373 kts | 51° |
| 2026-05-06 10:45 | -28.42970 | 153.62122 | 16121 ft | 373 kts | 51° |
| 2026-05-06 10:45 | -28.41400 | 153.64449 | 16116 ft | 367 kts | 41° |
| 2026-05-06 10:45 | -28.39387 | 153.66105 | 15801 ft | 351 kts | 24° |
| 2026-05-06 10:45 | -28.37223 | 153.67322 | 15445 ft | 344 kts | 22° |
| 2026-05-06 10:46 | -28.35085 | 153.68487 | 15086 ft | 338 kts | 21° |
| 2026-05-06 10:46 | -28.32974 | 153.69629 | 14723 ft | 335 kts | 21° |
| 2026-05-06 10:46 | -28.30905 | 153.70742 | 14371 ft | 332 kts | 21° |
| 2026-05-06 10:46 | -28.28825 | 153.71854 | 13965 ft | 329 kts | 21° |
| 2026-05-06 10:47 | -28.26761 | 153.72950 | 13447 ft | 325 kts | 21° |
| 2026-05-06 10:47 | -28.24716 | 153.74021 | 12690 ft | 323 kts | 21° |
| 2026-05-06 10:47 | -28.22676 | 153.75071 | 11942 ft | 321 kts | 21° |
| 2026-05-06 10:47 | -28.20647 | 153.76102 | 11227 ft | 318 kts | 21° |
| 2026-05-06 10:48 | -28.18626 | 153.77125 | 10512 ft | 317 kts | 21° |
| 2026-05-06 10:48 | -28.16658 | 153.78116 | 10237 ft | 301 kts | 21° |
| 2026-05-06 10:48 | -28.14680 | 153.78698 | 9757 ft | 289 kts | 358° |
| 2026-05-06 10:48 | -28.12751 | 153.78273 | 9186 ft | 280 kts | 332° |
| 2026-05-06 10:49 | -28.11224 | 153.76960 | 8581 ft | 274 kts | 308° |
| 2026-05-06 10:49 | -28.10301 | 153.75100 | 7981 ft | 271 kts | 285° |
| 2026-05-06 10:49 | -28.10098 | 153.73024 | 7395 ft | 270 kts | 263° |
| 2026-05-06 10:49 | -28.10634 | 153.71007 | 6858 ft | 268 kts | 242° |
| 2026-05-06 10:50 | -28.11573 | 153.69235 | 6530 ft | 258 kts | 239° |
| 2026-05-06 10:50 | -28.12511 | 153.67473 | 5818 ft | 263 kts | 239° |
| 2026-05-06 10:50 | -28.13458 | 153.65679 | 5199 ft | 266 kts | 238° |
| 2026-05-06 10:50 | -28.14284 | 153.63870 | 4952 ft | 252 kts | 255° |
| 2026-05-06 10:51 | -28.14280 | 153.61986 | 4819 ft | 234 kts | 286° |
| 2026-05-06 10:51 | -28.13424 | 153.60437 | 4199 ft | 238 kts | 319° |
| 2026-05-06 10:51 | -28.12125 | 153.59248 | 3689 ft | 240 kts | 322° |
| 2026-05-06 10:51 | -28.10855 | 153.58100 | 3475 ft | 228 kts | 321° |
| 2026-05-06 10:52 | -28.09624 | 153.56983 | 3330 ft | 226 kts | 321° |
| 2026-05-06 10:52 | -28.08469 | 153.55779 | 3085 ft | 225 kts | 309° |
| 2026-05-06 10:52 | -28.07660 | 153.54307 | 2770 ft | 216 kts | 292° |
| 2026-05-06 10:52 | -28.07235 | 153.52718 | 2486 ft | 207 kts | 277° |
| 2026-05-06 10:53 | -28.07166 | 153.51122 | 2204 ft | 200 kts | 261° |
| 2026-05-06 10:53 | -28.07421 | 153.49639 | 1982 ft | 183 kts | 245° |
| 2026-05-06 10:53 | -28.08051 | 153.48480 | 1730 ft | 163 kts | 223° |
| 2026-05-06 10:53 | -28.08864 | 153.47754 | 1515 ft | 138 kts | 204° |
| 2026-05-06 10:54 | -28.09709 | 153.47384 | 1339 ft | 128 kts | 189° |
| 2026-05-06 10:54 | -28.10567 | 153.47291 | 1177 ft | 123 kts | 177° |
| 2026-05-06 10:54 | -28.11412 | 153.47459 | 1017 ft | 123 kts | 162° |
| 2026-05-06 10:54 | -28.12194 | 153.47870 | 831 ft | 127 kts | 152° |
| 2026-05-06 10:55 | -28.12956 | 153.48373 | 653 ft | 126 kts | 150° |
| 2026-05-06 10:55 | -28.13721 | 153.48852 | 515 ft | 126 kts | 154° |
| 2026-05-06 10:55 | -28.15137 | 153.49749 | 192 ft | 128 kts | 155° |
| 2026-05-06 10:56 | -28.15910 | 153.50237 | 35 ft | 126 kts | 153° |
| 2026-05-06 10:56 | -28.16559 | 153.50648 | 27 ft | 83 kts | 150° |
| 2026-05-06 10:56 | -28.16904 | 153.50871 | 28 ft | 30 kts | 149° |
| 2026-05-06 10:56 | -28.16916 | 153.51004 | 27 ft | 0 kts | 59° |
| 2026-05-06 10:57 | -28.16915 | 153.51010 | 26 ft | 3 kts | 71° |
| 2026-05-06 10:57 | -28.16911 | 153.51021 | 26 ft | 0 kts | 65° |
| 2026-05-06 10:58 | -28.16889 | 153.51066 | 26 ft | 13 kts | 60° |
| 2026-05-06 10:58 | -28.16841 | 153.51161 | 28 ft | 15 kts | 57° |
| 2026-05-06 10:58 | -28.16805 | 153.51218 | 26 ft | 5 kts | 62° |
| 2026-05-06 10:58 | -28.16790 | 153.51250 | 26 ft | 3 kts | 60° |
| 2026-05-06 10:59 | -28.16787 | 153.51256 | 30 ft | 0 kts | 60° |